Time;durP1;ratioP1;P1;durP2;ratioP2;P2;SDS_P1;SDS_P2;PMS_P1;PMS_P2;Temp;Humidity;BMP_temperature;BMP_pressure;BME280_temperature;BME280_humidity;BME280_pressure;Samples;Min_cycle;Max_cycle;Signal;HPM_P1;HPM_P2
2022/05/13 00:00:54;;;;;;;4.20;3.40;;;;;;;20.09;46.68;94976.06;5090599;28;20719;-87
2022/05/13 00:03:22;;;;;;;3.77;3.37;;;;;;;19.93;46.61;94948.56;5091660;28;20204;-83
2022/05/13 00:05:50;;;;;;;9.07;3.43;;;;;;;20.05;46.69;94969.63;5090797;28;20680;-86
2022/05/13 00:08:17;;;;;;;5.90;4.07;;;;;;;20.02;46.75;94976.00;5090574;28;20223;-81
2022/05/13 00:10:44;;;;;;;5.00;3.60;;;;;;;20.00;46.65;94970.19;5090827;28;20200;-86
2022/05/13 00:13:11;;;;;;;3.50;3.20;;;;;;;19.57;46.88;94904.56;5091621;28;20201;-83
2022/05/13 00:15:40;;;;;;;5.47;3.77;;;;;;;19.35;46.91;94877.06;5091061;28;20192;-86
2022/05/13 00:18:07;;;;;;;5.37;3.47;;;;;;;19.65;47.24;94927.81;5092249;28;20194;-85
2022/05/13 00:20:36;;;;;;;3.93;3.30;;;;;;;19.78;46.97;94953.88;5095880;28;20216;-86
2022/05/13 00:23:04;;;;;;;6.80;3.83;;;;;;;19.72;46.92;94940.81;5096422;28;20217;-83
2022/05/13 00:25:32;;;;;;;9.10;3.93;;;;;;;19.54;47.14;94921.28;5091310;28;20204;-85
2022/05/13 00:28:01;;;;;;;4.50;3.20;;;;;;;19.69;47.17;94941.19;5091319;28;20272;-87
2022/05/13 00:30:30;;;;;;;6.33;3.57;;;;;;;19.34;47.16;94884.00;5091140;28;20201;-85
2022/05/13 00:32:58;;;;;;;4.03;3.50;;;;;;;19.80;47.55;94964.84;5091286;28;20209;-85
2022/05/13 00:35:26;;;;;;;4.53;3.50;;;;;;;19.79;47.15;94963.25;5090895;28;20286;-85
2022/05/13 00:37:54;;;;;;;4.90;3.70;;;;;;;18.97;47.54;94844.41;5090358;28;20190;-85
2022/05/13 00:40:23;;;;;;;5.70;3.97;;;;;;;19.74;47.33;94970.78;5089914;28;20223;-82
2022/05/13 00:42:51;;;;;;;4.27;3.87;;;;;;;19.72;47.27;94971.97;5091357;28;20196;-86
2022/05/13 00:45:19;;;;;;;4.07;3.67;;;;;;;19.69;47.35;94965.38;5091002;28;20186;-85
2022/05/13 00:47:46;;;;;;;4.17;3.40;;;;;;;19.36;47.44;94920.16;5090693;28;20182;-86
2022/05/13 00:50:15;;;;;;;4.83;3.77;;;;;;;19.64;47.61;94972.09;5090645;28;20907;-84
2022/05/13 00:52:45;;;;;;;4.10;3.37;;;;;;;18.92;47.49;94857.13;5089925;28;20225;-85
2022/05/13 00:55:18;;;;;;;3.50;3.20;;;;;;;19.26;47.43;94916.06;5091590;28;20194;-84
2022/05/13 00:57:47;;;;;;;3.93;3.63;;;;;;;19.59;47.86;94977.00;5093638;28;20200;-85
2022/05/13 01:00:16;;;;;;;4.10;3.70;;;;;;;19.56;47.78;94975.59;5094166;28;20209;-85
2022/05/13 01:02:45;;;;;;;3.90;3.60;;;;;;;19.53;47.71;94970.78;5093006;28;20193;-86
2022/05/13 01:05:15;;;;;;;4.47;3.37;;;;;;;19.53;48.01;94973.38;5093728;28;20193;-83
2022/05/13 01:07:42;;;;;;;3.83;3.40;;;;;;;19.36;47.83;94951.28;5093301;28;20197;-84
2022/05/13 01:10:17;;;;;;;4.20;3.60;;;;;;;19.37;47.93;94964.03;5096179;28;20188;-83
2022/05/13 01:12:50;;;;;;;4.57;3.50;;;;;;;19.44;47.97;94977.88;5094727;28;20200;-83
2022/05/13 01:15:20;;;;;;;3.87;3.47;;;;;;;19.41;48.31;94980.03;5097240;28;20190;-84
2022/05/13 01:20:33;;;;;;;4.93;3.53;;;;;;;19.19;48.13;94942.91;5092663;28;20298;-84
2022/05/13 01:23:04;;;;;;;5.87;3.67;;;;;;;19.34;48.31;94968.78;5092846;28;20193;-84
2022/05/13 01:25:34;;;;;;;4.37;3.80;;;;;;;19.17;48.32;94943.13;5092797;28;20185;-82
2022/05/13 01:28:09;;;;;;;5.17;3.67;;;;;;;19.28;48.46;94968.53;5092618;28;20181;-82
2022/05/13 01:30:41;;;;;;;5.70;3.80;;;;;;;19.25;48.49;94961.13;5092153;28;20605;-84
2022/05/13 01:33:08;;;;;;;4.17;3.77;;;;;;;19.25;48.70;94970.69;5092875;28;20200;-82
2022/05/13 01:35:38;;;;;;;4.20;3.80;;;;;;;19.22;48.81;94958.91;5092584;28;20185;-81
2022/05/13 01:38:07;;;;;;;4.83;3.50;;;;;;;19.18;48.83;94949.91;5092510;28;20186;-85
2022/05/13 01:40:34;;;;;;;3.67;3.37;;;;;;;18.85;48.83;94902.09;5092295;28;20222;-84
2022/05/13 01:43:01;;;;;;;7.70;3.60;;;;;;;18.86;48.95;94911.47;5093332;28;20532;-85
2022/05/13 01:45:27;;;;;;;5.17;3.93;;;;;;;19.14;49.15;94950.47;5092712;28;20197;-86
2022/05/13 01:47:54;;;;;;;4.30;3.90;;;;;;;18.77;48.90;94892.63;5092597;28;20197;-86
2022/05/13 01:50:22;;;;;;;4.27;3.87;;;;;;;18.77;49.17;94893.44;5094675;28;20189;-82
2022/05/13 01:52:49;;;;;;;4.07;3.47;;;;;;;19.08;49.10;94946.00;5092881;28;20226;-83
2022/05/13 01:55:17;;;;;;;4.40;4.00;;;;;;;19.06;49.32;94946.19;5092345;28;20193;-81
2022/05/13 01:57:44;;;;;;;4.13;3.63;;;;;;;18.96;49.06;94930.13;5092953;28;20200;-83
2022/05/13 02:00:12;;;;;;;4.33;3.40;;;;;;;18.89;49.26;94924.88;5098816;28;20227;-81
2022/05/13 02:05:20;;;;;;;4.17;3.77;;;;;;;18.97;49.21;94945.50;5091775;28;20216;-80
2022/05/13 02:07:47;;;;;;;4.20;3.83;;;;;;;18.95;49.56;94946.66;5090276;28;20201;-79
2022/05/13 02:10:13;;;;;;;4.77;3.83;;;;;;;18.93;49.57;94946.84;5092111;28;20607;-82
2022/05/13 02:12:42;;;;;;;6.40;3.20;;;;;;;18.66;49.50;94906.84;5091447;28;20648;-80
2022/05/13 02:15:09;;;;;;;4.40;3.53;;;;;;;18.88;49.69;94951.78;5092254;28;20212;-81
2022/05/13 02:17:37;;;;;;;5.97;3.50;;;;;;;18.87;49.64;94947.59;5091518;28;20185;-80
2022/05/13 02:20:05;;;;;;;4.27;3.53;;;;;;;18.85;49.56;94953.94;5092006;28;20205;-80
2022/05/13 02:22:31;;;;;;;5.07;3.63;;;;;;;18.83;49.56;94956.72;5091358;28;20595;-84
2022/05/13 02:24:58;;;;;;;4.33;3.90;;;;;;;18.67;49.56;94939.53;5091805;28;20197;-82
2022/05/13 02:27:25;;;;;;;5.03;3.83;;;;;;;18.69;49.54;94944.53;5091858;28;20181;-81
2022/05/13 02:29:54;;;;;;;3.97;3.53;;;;;;;18.77;49.61;94963.41;5091535;28;20649;-83
2022/05/13 02:32:21;;;;;;;5.00;3.37;;;;;;;18.75;49.69;94962.00;5091586;28;20197;-84
2022/05/13 02:34:48;;;;;;;7.23;3.50;;;;;;;18.73;49.64;94969.94;5091137;28;20186;-85
2022/05/13 02:37:16;;;;;;;3.73;3.40;;;;;;;18.71;49.62;94958.94;5091350;28;20190;-81
2022/05/13 02:39:43;;;;;;;4.00;3.70;;;;;;;18.56;49.67;94948.56;5091120;28;20220;-79
2022/05/13 02:42:10;;;;;;;4.47;3.43;;;;;;;18.68;49.57;94971.44;5091345;28;20649;-84
2022/05/13 02:44:37;;;;;;;4.27;3.30;;;;;;;18.66;49.60;94973.41;5090849;28;20186;-80
2022/05/13 02:47:06;;;;;;;5.40;3.27;;;;;;;18.64;49.65;94975.38;5091531;28;20618;-82
2022/05/13 02:49:33;;;;;;;4.97;3.87;;;;;;;18.50;49.77;94953.69;5091084;28;20194;-86
2022/05/13 02:51:59;;;;;;;4.93;3.50;;;;;;;18.53;49.84;94958.50;5090970;28;20236;-83
2022/05/13 02:54:26;;;;;;;4.30;3.23;;;;;;;18.45;49.77;94958.59;5090934;28;20192;-83
2022/05/13 02:56:53;;;;;;;4.43;3.70;;;;;;;18.56;50.13;94966.69;5091472;28;20181;-85
2022/05/13 02:59:20;;;;;;;4.43;3.33;;;;;;;18.46;50.02;94960.19;5091009;28;20190;-86
2022/05/13 03:01:47;;;;;;;4.90;3.07;;;;;;;18.52;50.06;94973.25;5091201;28;20225;-85
2022/05/13 03:04:16;;;;;;;3.83;3.30;;;;;;;18.52;50.18;94972.41;5091169;28;20560;-85
2022/05/13 03:06:43;;;;;;;4.27;3.87;;;;;;;18.36;49.92;94954.50;5090712;28;20194;-84
2022/05/13 03:09:10;;;;;;;3.90;3.60;;;;;;;18.35;50.07;94950.28;5091271;28;20213;-84
2022/05/13 03:11:37;;;;;;;5.53;4.10;;;;;;;18.38;50.39;94950.72;5090735;28;20193;-85
2022/05/13 03:14:04;;;;;;;6.30;3.40;;;;;;;18.45;50.35;94962.00;5091145;28;20276;-84
2022/05/13 03:16:32;;;;;;;3.70;3.40;;;;;;;18.45;50.28;94964.56;5091013;28;20280;-81
2022/05/13 03:19:00;;;;;;;4.27;3.87;;;;;;;18.09;50.11;94920.50;5090593;28;20648;-81
2022/05/13 03:21:29;;;;;;;4.60;3.70;;;;;;;18.43;50.59;94968.31;5090461;28;20278;-83
2022/05/13 03:23:56;;;;;;;4.60;3.73;;;;;;;17.96;50.49;94902.16;5091184;28;20209;-84
2022/05/13 03:26:23;;;;;;;6.50;4.13;;;;;;;18.42;50.44;94975.28;5090951;28;20206;-83
2022/05/13 03:28:50;;;;;;;8.53;3.77;;;;;;;18.43;50.65;94976.88;5090698;28;20281;-82
2022/05/13 03:31:17;;;;;;;5.87;3.53;;;;;;;18.30;50.75;94958.59;5090663;28;20181;-81
2022/05/13 03:33:44;;;;;;;8.50;4.30;;;;;;;18.44;50.96;94988.88;5090783;28;20182;-80
2022/05/13 03:36:12;;;;;;;4.27;3.87;;;;;;;18.46;50.86;94983.50;5094220;28;20703;-83
2022/05/13 03:38:41;;;;;;;4.43;3.90;;;;;;;18.38;50.97;94974.03;5094548;28;20212;-80
2022/05/13 03:41:08;;;;;;;5.97;4.13;;;;;;;18.48;50.80;94989.28;5101161;28;20205;-80
2022/05/13 03:43:35;;;;;;;8.37;4.00;;;;;;;17.60;51.27;94851.09;5099477;28;20190;-80
2022/05/13 03:46:02;;;;;;;4.87;3.90;;;;;;;18.51;50.95;94986.34;5092644;28;20189;-82
2022/05/13 03:48:29;;;;;;;9.37;4.27;;;;;;;18.51;51.28;94989.75;5092258;28;20346;-82
2022/05/13 03:50:56;;;;;;;5.73;4.20;;;;;;;17.94;51.30;94901.56;5090787;28;20189;-86
2022/05/13 03:53:22;;;;;;;7.73;3.83;;;;;;;18.33;51.13;94954.84;5092090;28;20189;-84
2022/05/13 03:55:51;;;;;;;7.70;3.73;;;;;;;18.46;51.07;94983.50;5090809;28;20660;-86
2022/05/13 03:58:17;;;;;;;7.60;4.17;;;;;;;18.22;51.30;94941.38;5091011;28;20228;-86
2022/05/13 04:00:46;;;;;;;7.90;4.17;;;;;;;18.65;51.35;95002.88;5086940;28;20213;-83
2022/05/13 04:03:14;;;;;;;4.63;3.87;;;;;;;18.65;51.32;95006.28;5072159;28;20190;-86
2022/05/13 04:11:12;;;;;;;6.30;4.40;;;;;;;18.68;51.44;95000.72;5074243;28;20250;-84
2022/05/13 04:16:23;;;;;;;6.47;4.30;;;;;;;18.84;51.47;95011.94;5089151;28;20181;-88
2022/05/13 04:18:51;;;;;;;5.83;4.00;;;;;;;18.88;51.51;95018.34;5090821;28;20185;-77
2022/05/13 04:21:24;;;;;;;6.27;4.63;;;;;;;18.85;51.52;95011.72;5090249;28;20224;-86
2022/05/13 04:24:04;;;;;;;9.10;4.83;;;;;;;18.85;51.69;95008.34;5090488;28;20189;-85
2022/05/13 04:26:32;;;;;;;6.67;4.57;;;;;;;19.02;51.63;95023.50;5090151;28;20231;-82
2022/05/13 04:29:01;;;;;;;5.63;4.40;;;;;;;18.93;51.81;95005.66;5090125;28;20193;-81
2022/05/13 04:31:30;;;;;;;14.23;5.13;;;;;;;19.12;51.81;95019.81;5091181;28;20193;-79
2022/05/13 04:33:57;;;;;;;10.77;4.73;;;;;;;19.08;51.92;95010.81;5092310;28;20201;-85
2022/05/13 04:36:25;;;;;;;9.23;4.77;;;;;;;19.04;51.94;95006.00;5076682;28;20572;-81
2022/05/13 04:38:52;;;;;;;7.93;5.13;;;;;;;19.01;52.05;94990.81;5089219;28;20208;-84
2022/05/13 04:44:07;;;;;;;8.57;5.17;;;;;;;19.34;52.21;95031.03;5098030;28;20188;-85
2022/05/13 04:46:34;;;;;;;12.83;5.13;;;;;;;19.39;52.17;95032.09;5105990;28;20197;-81
2022/05/13 04:49:01;;;;;;;9.23;5.47;;;;;;;19.45;51.86;95030.56;5092314;28;20184;-85
2022/05/13 04:51:28;;;;;;;8.53;6.47;;;;;;;19.52;51.82;95027.06;5078014;28;20237;-85
2022/05/13 04:53:56;;;;;;;10.13;6.17;;;;;;;19.66;51.73;95028.00;5073713;28;20190;-86
2022/05/13 04:56:24;;;;;;;5.37;4.70;;;;;;;19.59;52.19;94977.81;5085535;28;20188;-79
2022/05/13 04:58:51;;;;;;;12.07;4.83;;;;;;;20.36;74.43;95026.38;5093073;28;20194;-79
2022/05/13 05:01:21;;;;;;;7.33;4.70;;;;;;;20.85;73.00;95033.28;5087884;28;20308;-86
2022/05/13 05:03:48;;;;;;;9.63;4.37;;;;;;;21.29;70.25;95030.28;5073824;28;20194;-81
2022/05/13 05:06:17;;;;;;;9.20;5.03;;;;;;;21.92;66.45;95034.41;5074922;28;20198;-81
2022/05/13 05:08:44;;;;;;;15.97;6.97;;;;;;;22.39;66.25;95002.16;5082196;28;20190;-85
2022/05/13 05:11:13;;;;;;;15.70;8.32;;;;;;;23.15;64.17;95019.81;5078066;28;20182;-90
2022/05/13 05:13:42;;;;;;;11.88;6.07;;;;;;;23.80;60.83;95039.78;5083361;28;20272;-86
2022/05/13 05:16:09;;;;;;;13.63;6.30;;;;;;;24.40;60.31;95038.34;5077573;28;20194;-83
2022/05/13 05:18:40;;;;;;;11.27;5.82;;;;;;;24.97;58.81;95040.78;5074553;28;20191;-84
2022/05/13 05:21:09;;;;;;;10.50;4.95;;;;;;;25.29;56.39;95010.00;5076814;28;20715;-84
2022/05/13 05:23:38;;;;;;;11.00;5.53;;;;;;;25.99;54.32;95043.50;5076747;28;20541;-82
2022/05/13 05:26:06;;;;;;;12.18;5.35;;;;;;;26.55;53.11;95052.72;5073231;28;20214;-78
2022/05/13 05:28:34;;;;;;;10.50;5.90;;;;;;;26.71;51.58;94999.56;5072688;28;20185;-81
2022/05/13 05:31:01;;;;;;;8.23;4.40;;;;;;;27.46;50.51;95053.03;5072327;28;20197;-80
2022/05/13 05:33:28;;;;;;;12.35;5.45;;;;;;;27.87;49.29;95053.81;5072593;28;20195;-78
2022/05/13 05:35:57;;;;;;;8.93;4.55;;;;;;;28.24;47.72;95052.34;5072363;28;20186;-80
2022/05/13 05:38:24;;;;;;;5.95;4.50;;;;;;;28.60;47.10;95052.91;5072608;28;20190;-82
2022/05/13 05:40:52;;;;;;;8.20;4.85;;;;;;;28.93;46.32;95046.78;5071648;28;20213;-80
2022/05/13 05:43:20;;;;;;;6.80;4.20;;;;;;;29.24;44.97;95045.34;5072303;28;20190;-83
2022/05/13 05:45:47;;;;;;;11.50;4.22;;;;;;;29.17;44.78;94991.25;5072196;28;20198;-78
2022/05/13 05:48:21;;;;;;;6.72;4.18;;;;;;;29.84;44.16;95053.41;5072048;28;20692;-82
2022/05/13 05:50:49;;;;;;;4.63;3.90;;;;;;;30.10;43.28;95054.41;5071980;28;20251;-78
2022/05/13 05:57:13;;;;;;;10.52;5.43;;;;;;;30.33;42.42;95048.03;5071720;28;20222;-77
2022/05/13 05:58:51;;;;;;;7.57;4.05;;;;;;;30.87;41.28;95050.50;5071457;28;20256;-80
2022/05/13 06:01:18;;;;;;;8.30;4.07;;;;;;;31.06;40.52;95045.59;5071736;28;20217;-79
2022/05/13 06:03:45;;;;;;;5.07;4.38;;;;;;;31.06;40.02;95019.97;5071323;28;20195;-78
2022/05/13 06:06:13;;;;;;;5.75;3.92;;;;;;;31.39;39.47;95052.34;5071843;28;20187;-77
2022/05/13 06:08:42;;;;;;;4.90;3.97;;;;;;;31.41;39.67;95013.22;5071372;28;20206;-77
2022/05/13 06:11:09;;;;;;;7.80;4.35;;;;;;;31.71;38.88;95037.09;5071978;28;20182;-77
2022/05/13 06:13:36;;;;;;;4.40;4.00;;;;;;;31.82;38.65;95031.81;5071137;28;20248;-80
2022/05/13 06:16:04;;;;;;;5.22;3.97;;;;;;;31.86;38.27;95015.19;5072041;28;20210;-79
2022/05/13 06:18:31;;;;;;;9.27;4.00;;;;;;;32.16;38.36;95040.84;5071435;28;20179;-78
2022/05/13 06:20:58;;;;;;;8.45;4.30;;;;;;;32.27;37.61;95041.66;5081192;28;20198;-78
2022/05/13 06:23:25;;;;;;;7.78;3.75;;;;;;;32.39;37.26;95038.78;5087993;28;20205;-80
2022/05/13 06:25:53;;;;;;;8.00;3.92;;;;;;;32.51;37.49;95035.84;5072198;28;20225;-80
2022/05/13 06:28:20;;;;;;;10.48;4.13;;;;;;;32.63;37.83;95028.41;5071664;28;20187;-85
2022/05/13 06:30:47;;;;;;;8.93;4.38;;;;;;;32.74;37.95;95035.28;5071565;28;20194;-84
2022/05/13 06:33:14;;;;;;;8.45;4.43;;;;;;;32.86;38.15;95027.84;5073111;28;20193;-85
2022/05/13 06:35:41;;;;;;;6.35;3.95;;;;;;;32.96;38.53;95024.38;5070519;28;20191;-78
2022/05/13 06:38:09;;;;;;;9.40;4.50;;;;;;;33.08;38.05;95026.75;5084176;28;20216;-83
2022/05/13 06:40:36;;;;;;;6.93;4.00;;;;;;;33.17;38.24;95025.09;5091121;28;20198;-81
2022/05/13 06:43:04;;;;;;;4.80;4.38;;;;;;;33.27;38.10;95032.22;5089333;28;20206;-80
2022/05/13 06:45:31;;;;;;;6.03;4.35;;;;;;;33.32;37.57;95029.53;5091337;28;20204;-80
2022/05/13 06:47:58;;;;;;;6.50;4.07;;;;;;;33.39;37.66;95028.19;5091374;28;20182;-80
2022/05/13 06:50:25;;;;;;;11.07;5.03;;;;;;;33.34;37.25;95019.47;5091343;28;20189;-79
2022/05/13 06:52:52;;;;;;;6.07;5.38;;;;;;;33.48;36.33;95022.34;5081671;28;20662;-77
2022/05/13 06:55:19;;;;;;;8.23;5.13;;;;;;;33.51;36.28;95022.59;5081582;28;20290;-80
2022/05/13 06:57:46;;;;;;;11.43;6.00;;;;;;;33.53;35.71;95015.13;5070863;28;20287;-78
2022/05/13 07:00:15;;;;;;;6.50;4.30;;;;;;;33.55;35.04;95017.50;5078572;28;20209;-78
2022/05/13 07:02:43;;;;;;;7.80;5.20;;;;;;;33.47;35.43;94997.69;5078527;28;20214;-80
2022/05/13 07:05:12;;;;;;;8.25;5.28;;;;;;;33.61;34.76;95019.88;5067206;28;20289;-80
2022/05/13 07:07:39;;;;;;;6.82;4.70;;;;;;;33.61;35.00;95022.50;5076207;28;20559;-79
2022/05/13 07:10:07;;;;;;;5.63;4.45;;;;;;;33.65;36.20;95018.25;5081990;28;20205;-85
2022/05/13 07:12:34;;;;;;;6.40;4.47;;;;;;;33.66;36.23;95017.16;5087553;28;20185;-78
2022/05/13 07:15:03;;;;;;;6.93;4.68;;;;;;;33.69;36.24;95013.19;5081403;28;20182;-79
2022/05/13 07:17:32;;;;;;;7.15;4.90;;;;;;;33.70;35.16;95012.91;5087678;28;20186;-78
2022/05/13 07:19:59;;;;;;;4.88;4.38;;;;;;;33.57;34.72;94992.28;5077089;28;20236;-78
2022/05/13 07:22:26;;;;;;;6.88;5.03;;;;;;;33.29;35.77;94947.88;5080204;28;20221;-79
2022/05/13 07:24:53;;;;;;;5.93;4.57;;;;;;;33.73;35.81;95011.56;5081999;28;20193;-79
2022/05/13 07:27:19;;;;;;;5.82;4.38;;;;;;;33.60;34.40;94983.78;5080811;28;20646;-78
2022/05/13 07:29:46;;;;;;;6.75;4.13;;;;;;;33.41;34.79;94954.44;5076702;28;20187;-81
2022/05/13 07:32:13;;;;;;;7.18;4.55;;;;;;;33.57;35.25;94979.03;5083195;28;20186;-79
2022/05/13 07:34:42;;;;;;;6.45;5.13;;;;;;;33.70;33.93;95002.28;5083326;28;20190;-78
2022/05/13 07:37:09;;;;;;;8.82;4.90;;;;;;;33.66;33.93;95006.56;5082520;28;20190;-80
2022/05/13 07:42:21;;;;;;;5.78;4.53;;;;;;;33.50;33.82;94989.16;5087029;28;20702;-78
2022/05/13 07:44:48;;;;;;;6.90;5.13;;;;;;;33.47;33.65;94995.03;5089279;28;20186;-78
2022/05/13 07:47:17;;;;;;;7.70;4.78;;;;;;;33.44;33.94;94984.94;5089285;28;20204;-78
2022/05/13 07:49:47;;;;;;;8.13;3.88;;;;;;;33.45;34.84;94983.88;5075378;28;20272;-80
2022/05/13 07:52:13;;;;;;;8.55;5.55;;;;;;;33.46;35.22;94996.06;5088516;28;20224;-77
2022/05/13 07:54:41;;;;;;;7.88;5.00;;;;;;;33.44;34.58;94987.59;5079550;28;20205;-78
2022/05/13 07:57:08;;;;;;;7.80;4.90;;;;;;;33.41;34.48;94982.81;5064118;28;20676;-77
2022/05/13 08:00:24;;;;;;;7.68;5.13;;;;;;;33.38;34.73;94986.03;5086394;28;20766;-78
2022/05/13 08:02:23;;;;;;;9.23;5.47;;;;;;;33.12;34.81;94943.75;5070982;28;20247;-79
2022/05/13 08:04:52;;;;;;;8.43;4.90;;;;;;;33.34;34.46;94977.03;5089549;28;20190;-77
2022/05/13 08:07:20;;;;;;;13.05;5.95;;;;;;;33.30;34.39;94978.66;5079292;28;20189;-79
2022/05/13 08:09:47;;;;;;;9.27;4.90;;;;;;;33.25;34.48;94976.81;5083870;28;20190;-78
2022/05/13 08:12:13;;;;;;;7.68;4.68;;;;;;;33.16;34.29;94962.53;5077587;28;20178;-79
2022/05/13 08:14:40;;;;;;;6.75;4.70;;;;;;;33.05;34.71;94956.50;5081512;28;20190;-79
2022/05/13 08:17:08;;;;;;;12.02;5.50;;;;;;;33.04;34.08;94960.22;5079787;28;20681;-81
2022/05/13 08:19:34;;;;;;;10.75;5.97;;;;;;;33.01;33.95;94967.91;5078075;28;20186;-82
2022/05/13 08:22:03;;;;;;;15.63;6.25;;;;;;;32.82;33.86;94951.81;5068600;28;20603;-81
2022/05/13 08:24:30;;;;;;;8.73;4.85;;;;;;;32.82;33.99;94959.75;5085282;28;20224;-78
2022/05/13 08:26:57;;;;;;;12.05;4.82;;;;;;;32.74;33.82;94957.66;5092834;28;20193;-78
2022/05/13 08:29:24;;;;;;;8.05;5.40;;;;;;;32.10;34.24;94867.25;5086115;28;20194;-82
2022/05/13 08:31:51;;;;;;;7.35;4.90;;;;;;;32.46;34.08;94942.09;5078269;28;20188;-79
2022/05/13 08:34:17;;;;;;;8.50;5.18;;;;;;;32.32;34.00;94927.03;5082057;28;20178;-79
2022/05/13 08:36:45;;;;;;;10.40;5.18;;;;;;;32.42;34.16;94956.16;5086697;28;20673;-80
2022/05/13 08:39:13;;;;;;;10.10;5.05;;;;;;;32.32;34.23;94959.59;5076034;28;20190;-78
2022/05/13 08:41:52;;;;;;;12.30;5.20;;;;;;;32.19;34.21;94960.13;5085694;28;20181;-79
2022/05/13 08:44:19;;;;;;;9.90;4.70;;;;;;;32.08;34.29;94953.25;5076625;28;20198;-80
2022/05/13 08:46:59;;;;;;;9.70;4.50;;;;;;;31.98;35.06;94946.91;5071860;28;20659;-81
2022/05/13 08:49:34;;;;;;;9.00;4.43;;;;;;;31.91;35.36;94945.59;5090687;28;20198;-81
2022/05/13 08:55:07;;;;;;;5.63;4.13;;;;;;;31.29;35.94;94875.22;4992391;28;20747;-80
2022/05/13 08:57:39;;;;;;;11.40;4.45;;;;;;;31.57;35.50;94926.81;5006622;28;20193;-80
2022/05/13 09:00:11;;;;;;;8.30;4.68;;;;;;;31.54;35.64;94936.06;5001916;28;20634;-81
2022/05/13 09:02:40;;;;;;;8.75;4.85;;;;;;;31.45;35.27;94929.69;4991779;28;20221;-79
2022/05/13 09:05:22;;;;;;;8.48;4.53;;;;;;;31.32;35.39;94920.44;4993946;28;20211;-78
2022/05/13 09:07:51;;;;;;;12.93;4.80;;;;;;;31.27;35.20;94925.69;4987003;28;20201;-79
2022/05/13 09:10:19;;;;;;;7.78;4.82;;;;;;;31.19;35.26;94919.06;5004517;28;20208;-78
2022/05/13 09:12:53;;;;;;;6.20;3.80;;;;;;;31.10;35.42;94920.63;4992846;28;20209;-79
2022/05/13 09:15:24;;;;;;;8.45;4.38;;;;;;;31.02;36.04;94918.50;5002045;28;20360;-80
2022/05/13 09:18:03;;;;;;;9.27;5.13;;;;;;;30.95;35.64;94915.28;5006006;28;20192;-81
2022/05/13 09:20:30;;;;;;;8.40;4.82;;;;;;;30.85;35.75;94912.63;5000240;28;20610;-83
2022/05/13 09:22:58;;;;;;;6.70;4.70;;;;;;;30.78;36.14;94907.56;5006903;28;20220;-82
2022/05/13 09:25:37;;;;;;;4.43;4.03;;;;;;;30.69;36.02;94907.25;5007581;28;20203;-79
2022/05/13 09:28:10;;;;;;;5.85;4.05;;;;;;;30.62;36.32;94904.06;5002495;28;20969;-79
2022/05/13 09:30:39;;;;;;;9.32;4.07;;;;;;;30.45;37.07;94877.06;4987070;28;20193;-80
2022/05/13 09:33:20;;;;;;;11.40;4.22;;;;;;;30.47;36.93;94888.16;5066805;28;20201;-79
2022/05/13 09:35:49;;;;;;;7.15;4.10;;;;;;;30.40;36.79;94887.63;5087568;28;20205;-79
2022/05/13 09:38:19;;;;;;;9.55;5.50;;;;;;;29.98;37.45;94825.88;5089165;28;20272;-80
2022/05/13 09:41:00;;;;;;;6.35;4.60;;;;;;;30.28;38.16;94887.03;5084317;28;20930;-79
2022/05/13 09:43:37;;;;;;;7.07;3.38;;;;;;;29.84;39.01;94819.50;5088991;28;20217;-81
2022/05/13 09:46:07;;;;;;;4.63;3.60;;;;;;;30.15;38.78;94865.31;5089282;28;20229;-78
2022/05/13 09:48:37;;;;;;;4.97;3.95;;;;;;;30.10;39.22;94872.38;5087094;28;20194;-81
2022/05/13 09:51:27;;;;;;;5.65;4.03;;;;;;;30.03;39.52;94856.78;5084699;28;20196;-81
2022/05/13 09:54:06;;;;;;;5.18;3.65;;;;;;;29.97;39.28;94853.31;5090788;28;20201;-79
2022/05/13 09:56:41;;;;;;;4.38;3.95;;;;;;;29.91;39.87;94849.03;5074961;28;20194;-79
2022/05/13 09:59:19;;;;;;;6.10;4.32;;;;;;;29.73;39.67;94826.53;5078205;28;20189;-83
2022/05/13 10:01:47;;;;;;;7.32;4.38;;;;;;;29.81;38.80;94849.00;5071465;28;20197;-85
2022/05/13 10:04:20;;;;;;;5.95;4.43;;;;;;;29.76;38.30;94846.34;5074645;28;20201;-80
2022/05/13 10:06:48;;;;;;;6.10;3.75;;;;;;;29.70;38.90;94847.31;5082169;28;20214;-82
2022/05/13 10:15:11;;;;;;;7.57;4.05;;;;;;;29.47;40.07;94824.75;5083623;28;20204;-79
2022/05/13 10:17:43;;;;;;;4.30;3.90;;;;;;;29.41;40.25;94833.66;5084701;28;20202;-78
2022/05/13 10:20:16;;;;;;;4.93;3.80;;;;;;;29.33;39.97;94828.84;5077550;28;20618;-79
2022/05/13 10:22:50;;;;;;;6.55;3.72;;;;;;;29.28;39.68;94820.91;5077150;28;20213;-78
2022/05/13 10:25:21;;;;;;;7.03;3.80;;;;;;;29.09;39.75;94802.03;5085085;28;20267;-80
2022/05/13 10:27:53;;;;;;;4.32;3.92;;;;;;;29.16;39.48;94823.72;5075363;28;20186;-76
2022/05/13 10:30:32;;;;;;;7.95;3.78;;;;;;;29.08;39.49;94816.25;5083559;28;20205;-76
2022/05/13 10:33:03;;;;;;;4.43;3.50;;;;;;;29.05;39.19;94820.19;5079971;28;20186;-79
2022/05/13 10:35:34;;;;;;;6.03;3.63;;;;;;;29.03;40.28;94816.22;5081653;28;20205;-79
2022/05/13 10:38:09;;;;;;;5.70;4.10;;;;;;;28.99;41.04;94814.06;5078841;28;20185;-80
2022/05/13 10:40:40;;;;;;;4.82;3.42;;;;;;;28.96;41.16;94816.41;5070417;28;20201;-81
2022/05/13 10:43:14;;;;;;;4.93;3.53;;;;;;;28.83;41.28;94807.03;5070114;28;20226;-80
2022/05/13 10:45:42;;;;;;;5.70;3.78;;;;;;;28.88;41.18;94811.56;5077525;28;20189;-81
2022/05/13 10:48:25;;;;;;;3.70;2.83;;;;;;;28.79;40.04;94803.31;5074197;28;20645;-83
2022/05/13 10:51:08;;;;;;;4.80;3.85;;;;;;;28.78;40.58;94798.31;5075663;28;20883;-81
2022/05/13 10:53:52;;;;;;;6.03;4.15;;;;;;;28.55;40.55;94762.56;5083115;28;20209;-80
2022/05/13 10:56:25;;;;;;;6.28;3.50;;;;;;;28.70;40.73;94794.28;5084648;28;20190;-78
2022/05/13 10:59:01;;;;;;;4.32;3.83;;;;;;;27.42;41.20;94592.25;5083176;28;20193;-77
2022/05/13 11:01:41;;;;;;;5.65;3.63;;;;;;;28.59;41.65;94782.09;5087537;28;20178;-77
2022/05/13 11:04:16;;;;;;;5.10;4.00;;;;;;;28.42;42.10;94754.03;5082474;28;20214;-75
2022/05/13 11:07:08;;;;;;;3.70;3.35;;;;;;;28.44;40.95;94754.56;5071619;28;21489;-78
2022/05/13 11:09:47;;;;;;;3.58;3.25;;;;;;;28.57;41.21;94777.03;5076763;28;20762;-76
2022/05/13 11:12:27;;;;;;;4.43;3.60;;;;;;;28.54;41.57;94764.41;5076099;28;20186;-76
2022/05/13 11:15:08;;;;;;;4.07;3.55;;;;;;;28.50;41.36;94769.38;5080036;28;20699;-77
2022/05/13 11:17:43;;;;;;;4.90;3.33;;;;;;;28.46;41.13;94764.84;5085549;28;20661;-76
2022/05/13 11:20:22;;;;;;;3.80;3.45;;;;;;;28.43;40.87;94758.22;5086604;28;20610;-76
2022/05/13 11:23:01;;;;;;;5.63;3.50;;;;;;;28.39;41.18;94754.50;5069453;28;20719;-78
2022/05/13 11:25:55;;;;;;;6.05;3.50;;;;;;;28.36;40.73;94746.31;5075336;28;20200;-79
2022/05/13 11:28:37;;;;;;;4.20;3.78;;;;;;;28.33;40.38;94746.78;5085446;28;20186;-78
2022/05/13 11:31:16;;;;;;;6.20;3.75;;;;;;;28.18;41.61;94726.38;5088017;28;20186;-80
2022/05/13 11:33:47;;;;;;;3.95;3.38;;;;;;;28.30;41.90;94742.00;5084351;28;20286;-77
2022/05/13 11:36:29;;;;;;;3.70;3.38;;;;;;;28.22;42.23;94728.25;5077379;28;20204;-75
2022/05/13 11:39:28;;;;;;;4.10;3.60;;;;;;;28.23;42.61;94729.84;5068554;28;20198;-80
2022/05/13 11:42:06;;;;;;;3.80;3.08;;;;;;;28.22;42.43;94719.56;5008389;28;20203;-82
2022/05/13 11:44:43;;;;;;;4.72;3.50;;;;;;;28.21;42.40;94728.50;5026313;28;20203;-78
2022/05/13 11:47:18;;;;;;;4.30;3.60;;;;;;;28.02;41.74;94699.09;5026584;28;20206;-80
2022/05/13 11:49:47;;;;;;;6.47;3.70;;;;;;;28.16;41.67;94725.81;5025981;28;20199;-78
2022/05/13 11:52:46;;;;;;;4.07;3.40;;;;;;;28.15;42.37;94722.41;5026289;28;20722;-77
2022/05/13 11:55:20;;;;;;;5.03;3.22;;;;;;;28.13;42.54;94719.22;5024556;28;20195;-76
2022/05/13 11:57:49;;;;;;;3.78;2.92;;;;;;;28.11;42.22;94717.84;5026418;28;20202;-78
2022/05/13 12:00:34;;;;;;;3.58;3.15;;;;;;;28.08;42.54;94707.84;5026221;28;20972;-76
2022/05/13 12:03:14;;;;;;;5.28;3.30;;;;;;;28.08;42.43;94705.22;5026545;28;20207;-79
2022/05/13 12:06:01;;;;;;;3.78;3.40;;;;;;;28.05;42.49;94703.06;5026465;28;20195;-78
2022/05/13 12:08:33;;;;;;;6.53;3.50;;;;;;;28.03;42.90;94697.28;5025960;28;20187;-76
2022/05/13 12:11:31;;;;;;;3.65;3.00;;;;;;;28.00;42.58;94691.47;5026058;28;20187;-78
2022/05/13 12:14:10;;;;;;;4.05;3.30;;;;;;;27.98;42.73;94688.31;5025986;28;20586;-79
2022/05/13 12:16:45;;;;;;;5.18;3.65;;;;;;;27.94;42.73;94681.16;5026078;28;20245;-78